createdAt,value
2022-10-16T00:01:21.287Z,7.33
2022-10-16T00:03:49.185Z,6.50
2022-10-16T00:06:17.938Z,6.17
2022-10-16T00:08:44.756Z,5.40
2022-10-16T00:11:16.036Z,5.23
2022-10-16T00:13:44.587Z,8.00
2022-10-16T00:16:13.217Z,7.30
2022-10-16T00:18:40.159Z,11.57
2022-10-16T00:21:34.300Z,8.37
2022-10-16T00:24:06.743Z,10.70
2022-10-16T00:26:35.268Z,7.37
2022-10-16T00:29:02.081Z,6.80
2022-10-16T00:31:29.803Z,6.80
2022-10-16T00:33:56.557Z,12.03
2022-10-16T00:36:26.140Z,7.80
2022-10-16T00:38:55.672Z,5.63
2022-10-16T00:41:24.559Z,7.30
2022-10-16T00:43:53.924Z,8.07
2022-10-16T00:46:30.162Z,6.47
2022-10-16T00:49:05.531Z,5.40
2022-10-16T00:51:38.345Z,6.23
2022-10-16T00:54:09.775Z,8.80
2022-10-16T00:56:36.439Z,5.97
2022-10-16T00:59:08.589Z,4.70
2022-10-16T01:01:35.281Z,4.67
2022-10-16T01:04:01.889Z,6.13
2022-10-16T01:06:50.332Z,11.37
2022-10-16T01:09:27.474Z,5.63
2022-10-16T01:12:07.130Z,6.87
2022-10-16T01:15:00.821Z,6.43
2022-10-16T01:17:39.482Z,4.87
2022-10-16T01:20:27.888Z,10.53
2022-10-16T01:23:08.856Z,5.40
2022-10-16T01:25:56.474Z,6.87
2022-10-16T01:28:34.044Z,4.50
2022-10-16T01:31:02.727Z,5.80
2022-10-16T01:36:34.098Z,5.77
2022-10-16T01:39:03.486Z,6.53
2022-10-16T01:41:52.913Z,7.00
2022-10-16T01:44:29.586Z,8.80
2022-10-16T01:46:56.959Z,4.73
2022-10-16T01:49:27.513Z,8.40
2022-10-16T01:54:33.758Z,6.40
2022-10-16T01:58:12.798Z,7.50
2022-10-16T02:00:42.874Z,5.60
2022-10-16T02:03:12.233Z,6.00
2022-10-16T02:05:45.939Z,5.53
2022-10-16T02:08:13.437Z,6.80
2022-10-16T02:10:40.227Z,7.73
2022-10-16T02:13:21.178Z,10.10
2022-10-16T02:15:47.994Z,6.83
2022-10-16T02:18:15.684Z,6.27
2022-10-16T02:20:53.972Z,9.20
2022-10-16T02:23:41.426Z,7.77
2022-10-16T02:26:11.372Z,6.47
2022-10-16T02:28:53.363Z,11.67
2022-10-16T02:31:28.521Z,12.00
2022-10-16T02:33:58.979Z,13.43
2022-10-16T02:36:27.222Z,8.80
2022-10-16T02:38:55.065Z,9.93
2022-10-16T02:41:23.296Z,8.47
2022-10-16T02:43:50.572Z,6.87
2022-10-16T02:46:18.555Z,7.40
2022-10-16T02:48:45.211Z,5.93
2022-10-16T02:51:11.823Z,9.57
2022-10-16T02:53:38.354Z,5.80
2022-10-16T02:56:05.179Z,9.73
2022-10-16T02:58:31.760Z,9.10
2022-10-16T03:00:58.411Z,5.80
2022-10-16T03:03:25.047Z,5.30
2022-10-16T03:05:51.726Z,7.60
2022-10-16T03:08:18.554Z,6.47
2022-10-16T03:10:45.159Z,6.17
2022-10-16T03:13:11.758Z,9.40
2022-10-16T03:15:38.327Z,7.40
2022-10-16T03:18:05.049Z,11.37
2022-10-16T03:20:31.625Z,9.83
2022-10-16T03:22:58.283Z,7.13
2022-10-16T03:25:24.836Z,6.43
2022-10-16T03:27:51.398Z,6.10
2022-10-16T03:30:18.037Z,5.27
2022-10-16T03:32:47.955Z,5.83
2022-10-16T03:35:14.630Z,9.93
2022-10-16T03:37:41.194Z,8.20
2022-10-16T03:40:08.331Z,8.83
2022-10-16T03:42:34.880Z,12.37
2022-10-16T03:45:01.615Z,6.43
2022-10-16T03:47:28.449Z,6.40
2022-10-16T03:49:55.309Z,5.87
2022-10-16T03:52:21.912Z,5.83
2022-10-16T03:54:48.508Z,6.53
2022-10-16T03:57:15.163Z,6.17
2022-10-16T03:59:41.783Z,6.87
2022-10-16T04:02:08.384Z,7.77
2022-10-16T04:04:35.198Z,7.20
2022-10-16T04:07:01.949Z,6.77
2022-10-16T04:09:28.557Z,5.73
2022-10-16T04:11:55.271Z,6.90
2022-10-16T04:14:21.902Z,9.27
2022-10-16T04:16:48.511Z,6.20
2022-10-16T04:19:15.160Z,8.30
2022-10-16T04:21:41.759Z,6.37
2022-10-16T04:24:08.404Z,5.17
2022-10-16T04:26:34.998Z,5.90
2022-10-16T04:29:01.643Z,4.50
2022-10-16T04:31:28.299Z,6.30
2022-10-16T04:33:54.852Z,5.80
2022-10-16T04:36:24.254Z,6.13
2022-10-16T04:38:53.473Z,12.07
2022-10-16T04:41:20.067Z,7.43
2022-10-16T04:43:46.739Z,8.87
2022-10-16T04:46:13.512Z,6.10
2022-10-16T04:48:40.063Z,9.33
2022-10-16T04:51:06.830Z,7.03
2022-10-16T04:53:34.385Z,7.27
2022-10-16T04:56:01.045Z,12.33
2022-10-16T04:58:27.595Z,8.33
2022-10-16T05:00:54.948Z,8.90
2022-10-16T05:03:22.321Z,6.57
2022-10-16T05:05:49.204Z,9.60
2022-10-16T05:08:16.976Z,6.40
2022-10-16T05:10:44.869Z,8.57
2022-10-16T05:13:12.390Z,7.13
2022-10-16T05:15:38.982Z,15.50
2022-10-16T05:18:05.666Z,6.93
2022-10-16T05:20:34.208Z,7.53
2022-10-16T05:23:00.950Z,7.80
2022-10-16T05:25:27.549Z,8.10
2022-10-16T05:27:54.233Z,6.50
2022-10-16T05:30:21.267Z,5.70
2022-10-16T05:32:49.826Z,9.87
2022-10-16T05:35:17.793Z,10.10
2022-10-16T05:37:44.522Z,6.87
2022-10-16T05:40:11.993Z,8.07
2022-10-16T05:42:38.640Z,7.63
2022-10-16T05:45:07.178Z,11.30
2022-10-16T05:47:33.867Z,13.03
2022-10-16T05:50:00.443Z,9.53
2022-10-16T05:52:28.482Z,12.13
2022-10-16T05:54:55.062Z,14.73
2022-10-16T05:57:21.928Z,8.50
2022-10-16T05:59:48.492Z,9.47
2022-10-16T06:02:15.199Z,10.37
2022-10-16T06:04:42.118Z,14.10
2022-10-16T06:07:08.929Z,9.67
2022-10-16T06:09:35.544Z,8.30
2022-10-16T06:12:02.584Z,9.93
2022-10-16T06:14:29.194Z,11.53
2022-10-16T06:16:55.791Z,11.30
2022-10-16T06:19:22.518Z,14.87
2022-10-16T06:21:49.101Z,14.30
2022-10-16T06:24:15.746Z,17.13
2022-10-16T06:26:42.300Z,8.27
2022-10-16T06:29:09.868Z,12.90
2022-10-16T06:31:36.490Z,13.17
2022-10-16T06:34:04.361Z,9.77
2022-10-16T06:36:31.178Z,10.97
2022-10-16T06:38:57.755Z,10.33
2022-10-16T06:41:24.549Z,10.63
2022-10-16T06:43:51.841Z,11.33
2022-10-16T06:46:21.517Z,14.37
2022-10-16T06:48:48.392Z,9.07
2022-10-16T06:51:25.115Z,13.13
2022-10-16T06:54:04.986Z,9.53
2022-10-16T06:56:34.422Z,17.00
2022-10-16T06:59:02.075Z,14.83
2022-10-16T07:01:29.476Z,10.83
2022-10-16T07:03:56.237Z,12.23
2022-10-16T07:06:25.217Z,12.53
2022-10-16T07:08:52.357Z,13.80
2022-10-16T07:11:21.818Z,9.33
2022-10-16T07:13:52.964Z,11.13
2022-10-16T07:16:25.903Z,10.70
2022-10-16T07:18:58.561Z,9.17
2022-10-16T07:21:26.951Z,9.37
2022-10-16T07:23:59.020Z,8.17
2022-10-16T07:26:27.264Z,8.33
2022-10-16T07:28:53.952Z,12.10
2022-10-16T07:31:21.685Z,8.30
2022-10-16T07:33:49.291Z,10.33
2022-10-16T07:36:18.853Z,9.10
2022-10-16T07:38:46.889Z,10.77
2022-10-16T07:41:16.425Z,8.80
2022-10-16T07:43:53.955Z,7.63
2022-10-16T07:46:23.097Z,8.20
2022-10-16T07:48:50.161Z,8.33
2022-10-16T07:51:19.700Z,10.53
2022-10-16T07:53:47.012Z,12.53
2022-10-16T07:56:13.705Z,7.20
2022-10-16T07:58:40.464Z,10.63
2022-10-16T08:01:09.732Z,14.40
2022-10-16T08:03:37.012Z,9.10
2022-10-16T08:06:04.470Z,9.87
2022-10-16T08:08:31.492Z,11.63
2022-10-16T08:10:58.154Z,11.17
2022-10-16T08:13:24.986Z,14.17
2022-10-16T08:15:51.558Z,12.67
2022-10-16T08:18:18.262Z,10.77
2022-10-16T08:20:44.841Z,9.87
2022-10-16T08:23:14.726Z,13.30
2022-10-16T08:25:42.345Z,12.37
2022-10-16T08:28:10.945Z,17.60
2022-10-16T08:30:38.028Z,12.30
2022-10-16T08:33:05.023Z,10.33
2022-10-16T08:35:31.627Z,11.40
2022-10-16T08:37:58.282Z,10.80
2022-10-16T08:40:33.720Z,8.23
2022-10-16T08:43:19.228Z,7.63
2022-10-16T08:46:06.998Z,7.03
2022-10-16T08:48:51.664Z,9.07
2022-10-16T08:51:24.771Z,7.03
2022-10-16T08:53:51.268Z,7.03
2022-10-16T08:56:19.506Z,7.23
2022-10-16T09:01:23.977Z,8.50
2022-10-16T09:04:33.655Z,6.70
2022-10-16T09:07:32.318Z,7.50
2022-10-16T09:10:16.795Z,6.60
2022-10-16T09:13:10.653Z,3.90
2022-10-16T09:15:51.739Z,4.63
2022-10-16T09:18:30.139Z,6.40
2022-10-16T09:21:19.284Z,2.83
2022-10-16T09:23:46.230Z,4.60
2022-10-16T09:26:15.124Z,4.37
2022-10-16T09:28:42.159Z,4.00
2022-10-16T09:31:19.344Z,3.60
2022-10-16T09:33:51.453Z,5.53
2022-10-16T09:36:18.945Z,7.40
2022-10-16T09:38:45.520Z,7.50
2022-10-16T09:41:22.198Z,5.30
2022-10-16T09:43:59.964Z,4.97
2022-10-16T09:46:36.359Z,3.57
2022-10-16T09:49:21.912Z,7.03
2022-10-16T09:51:48.554Z,3.93
2022-10-16T09:54:20.405Z,5.57
2022-10-16T09:56:50.275Z,3.50
2022-10-16T09:59:19.251Z,3.73
2022-10-16T10:01:49.092Z,5.43
2022-10-16T10:04:16.358Z,7.13
2022-10-16T10:06:49.332Z,3.67
2022-10-16T10:09:26.917Z,6.03
2022-10-16T10:12:04.047Z,5.40
2022-10-16T10:14:41.089Z,6.23
2022-10-16T10:17:07.644Z,4.60
2022-10-16T10:19:49.337Z,3.67
2022-10-16T10:22:33.954Z,9.60
2022-10-16T10:25:12.663Z,3.33
2022-10-16T10:27:58.623Z,4.00
2022-10-16T10:30:51.257Z,3.10
2022-10-16T10:33:42.368Z,6.97
2022-10-16T10:36:41.846Z,3.60
2022-10-16T10:39:43.190Z,3.20
2022-10-16T10:42:12.842Z,3.20
2022-10-16T10:45:16.958Z,3.47
2022-10-16T10:47:46.435Z,3.50
2022-10-16T10:50:48.345Z,3.33
2022-10-16T10:53:33.715Z,3.60
2022-10-16T10:56:17.705Z,2.53
2022-10-16T10:59:06.394Z,4.93
2022-10-16T11:01:41.864Z,5.70
2022-10-16T11:04:59.937Z,3.83
2022-10-16T11:07:31.209Z,4.17
2022-10-16T11:10:10.338Z,3.27
2022-10-16T11:12:43.339Z,2.43
2022-10-16T11:15:18.292Z,4.67
2022-10-16T11:17:55.076Z,3.50
2022-10-16T11:20:30.162Z,6.10
2022-10-16T11:22:59.615Z,4.47
2022-10-16T11:25:31.918Z,2.73
2022-10-16T11:28:16.325Z,3.10
2022-10-16T11:31:09.124Z,2.70
2022-10-16T11:33:48.087Z,3.63
2022-10-16T11:36:34.808Z,5.33
2022-10-16T11:39:26.277Z,3.83
2022-10-16T11:41:57.102Z,4.70
2022-10-16T11:44:54.705Z,2.87
2022-10-16T11:48:03.356Z,3.07
2022-10-16T11:50:33.048Z,2.60
2022-10-16T11:53:06.584Z,2.37
2022-10-16T11:55:41.633Z,2.73
2022-10-16T11:58:16.691Z,2.40
2022-10-16T12:01:11.670Z,1.87
2022-10-16T12:03:50.673Z,2.60
2022-10-16T12:06:53.397Z,4.57
2022-10-16T12:09:26.154Z,2.40
2022-10-16T12:11:53.040Z,4.27
2022-10-16T12:14:21.471Z,3.67
2022-10-16T12:17:24.068Z,3.00
2022-10-16T12:20:31.771Z,4.27
2022-10-16T12:23:06.854Z,3.47
2022-10-16T12:25:40.201Z,1.93
2022-10-16T12:28:20.330Z,2.57
2022-10-16T12:31:04.490Z,2.93
2022-10-16T12:33:32.189Z,3.77
2022-10-16T12:36:03.163Z,2.03
2022-10-16T12:38:50.483Z,2.13
2022-10-16T12:41:38.779Z,2.67
2022-10-16T12:44:05.503Z,4.80
2022-10-16T12:46:34.101Z,3.33
2022-10-16T12:49:23.153Z,4.57
2022-10-16T12:51:49.879Z,3.33
2022-10-16T12:54:36.430Z,3.43
2022-10-16T12:57:24.681Z,5.00
2022-10-16T13:00:23.175Z,3.17
2022-10-16T13:03:10.323Z,3.33
2022-10-16T13:06:14.953Z,4.47
2022-10-16T13:09:20.884Z,3.87
2022-10-16T13:12:18.234Z,3.37
2022-10-16T13:15:10.651Z,5.47
2022-10-16T13:17:49.412Z,5.03
2022-10-16T13:20:25.064Z,4.07
2022-10-16T13:23:30.275Z,3.37
2022-10-16T13:26:05.659Z,4.33
2022-10-16T13:28:34.465Z,2.83
2022-10-16T13:31:02.677Z,2.43
2022-10-16T13:33:42.453Z,2.80
2022-10-16T13:36:20.909Z,5.60
2022-10-16T13:38:47.650Z,2.60
2022-10-16T13:41:18.068Z,3.33
2022-10-16T13:43:48.500Z,5.17
2022-10-16T13:46:19.790Z,2.93
2022-10-16T13:49:01.605Z,2.97
2022-10-16T13:51:30.455Z,4.90
2022-10-16T13:53:58.551Z,2.93
2022-10-16T13:56:33.761Z,3.17
2022-10-16T13:59:01.710Z,2.43
2022-10-16T14:01:34.585Z,6.87
2022-10-16T14:04:10.198Z,2.63
2022-10-16T14:06:37.971Z,3.80
2022-10-16T14:09:12.875Z,5.23
2022-10-16T14:11:52.889Z,4.27
2022-10-16T14:14:23.299Z,3.30
2022-10-16T14:16:50.148Z,7.73
2022-10-16T14:19:26.827Z,3.67
2022-10-16T14:21:54.045Z,5.20
2022-10-16T14:24:34.557Z,4.00
2022-10-16T14:27:02.172Z,3.93
2022-10-16T14:29:32.541Z,4.37
2022-10-16T14:32:02.497Z,3.87
2022-10-16T14:34:37.591Z,2.70
2022-10-16T14:37:27.680Z,2.67
2022-10-16T14:39:56.142Z,3.57
2022-10-16T14:42:25.706Z,4.73
2022-10-16T14:44:54.161Z,6.63
2022-10-16T14:47:26.405Z,3.93
2022-10-16T14:50:00.062Z,4.27
2022-10-16T14:52:29.016Z,6.73
2022-10-16T14:54:58.065Z,6.70
2022-10-16T14:57:29.118Z,6.03
2022-10-16T14:59:57.182Z,8.37
2022-10-16T15:02:34.043Z,8.17
2022-10-16T15:05:12.828Z,4.63
2022-10-16T15:07:39.440Z,3.07
2022-10-16T15:10:06.220Z,18.23
2022-10-16T15:12:33.347Z,2.73
2022-10-16T15:14:59.945Z,2.77
2022-10-16T15:17:26.837Z,4.03
2022-10-16T15:19:53.660Z,4.30
2022-10-16T15:22:20.228Z,5.23
2022-10-16T15:24:46.818Z,4.57
2022-10-16T15:27:13.529Z,8.27
2022-10-16T15:29:40.127Z,4.43
2022-10-16T15:32:06.678Z,6.83
2022-10-16T15:34:33.362Z,6.20
2022-10-16T15:37:04.161Z,5.10
2022-10-16T15:39:30.757Z,8.77
2022-10-16T15:41:57.330Z,11.90
2022-10-16T15:44:26.524Z,11.13
2022-10-16T15:46:56.373Z,7.17
2022-10-16T15:49:23.275Z,8.90
2022-10-16T15:51:49.859Z,5.93
2022-10-16T15:54:16.501Z,5.80
2022-10-16T15:56:43.086Z,4.80
2022-10-16T15:59:09.787Z,10.70
2022-10-16T16:01:36.905Z,6.17
2022-10-16T16:04:15.476Z,5.60
2022-10-16T16:06:52.193Z,6.37
2022-10-16T16:09:18.824Z,5.37
2022-10-16T16:11:45.455Z,6.63
2022-10-16T16:14:14.283Z,7.33
2022-10-16T16:16:40.976Z,7.50
2022-10-16T16:19:11.403Z,5.77
2022-10-16T16:21:38.831Z,4.73
2022-10-16T16:24:09.330Z,3.90
2022-10-16T16:26:40.478Z,5.20
2022-10-16T16:29:08.161Z,6.60
2022-10-16T16:31:35.862Z,4.87
2022-10-16T16:34:02.926Z,8.33
2022-10-16T16:36:29.922Z,6.63
2022-10-16T16:38:58.024Z,6.57
2022-10-16T16:41:27.478Z,12.50
2022-10-16T16:43:55.511Z,5.77
2022-10-16T16:46:23.428Z,5.47
2022-10-16T16:48:56.362Z,8.47
2022-10-16T16:51:23.049Z,5.73
2022-10-16T16:53:52.218Z,11.93
2022-10-16T16:56:20.046Z,7.40
2022-10-16T16:58:47.755Z,8.07
2022-10-16T17:01:19.737Z,8.43
2022-10-16T17:03:47.550Z,5.90
2022-10-16T17:06:15.400Z,7.20
2022-10-16T17:08:42.968Z,7.23
2022-10-16T17:11:21.327Z,11.17
2022-10-16T17:13:51.261Z,7.57
2022-10-16T17:16:23.743Z,8.40
2022-10-16T17:18:50.486Z,8.87
2022-10-16T17:21:17.205Z,5.77
2022-10-16T17:23:43.859Z,6.03
2022-10-16T17:26:17.403Z,6.00
2022-10-16T17:28:44.852Z,7.50
2022-10-16T17:31:19.892Z,5.90
2022-10-16T17:33:47.403Z,5.70
2022-10-16T17:36:15.169Z,8.10
2022-10-16T17:38:42.666Z,8.07
2022-10-16T17:41:24.021Z,11.50
2022-10-16T17:43:52.042Z,7.97
2022-10-16T17:46:21.506Z,7.50
2022-10-16T17:48:51.210Z,8.37
2022-10-16T17:51:20.309Z,7.13
2022-10-16T17:53:51.866Z,9.13
2022-10-16T17:56:19.192Z,9.07
2022-10-16T17:58:52.315Z,11.23
2022-10-16T18:01:20.682Z,8.07
2022-10-16T18:04:00.088Z,5.33
2022-10-16T18:06:28.040Z,6.93
2022-10-16T18:08:57.744Z,6.03
2022-10-16T18:11:25.094Z,10.73
2022-10-16T18:13:53.355Z,8.63
2022-10-16T18:16:20.338Z,8.70
2022-10-16T18:18:48.169Z,6.13
2022-10-16T18:21:17.887Z,8.33
2022-10-16T18:23:50.828Z,7.87
2022-10-16T18:26:20.179Z,6.93
2022-10-16T18:28:46.964Z,8.10
2022-10-16T18:31:16.626Z,12.37
2022-10-16T18:33:50.600Z,9.80
2022-10-16T18:36:19.949Z,8.23
2022-10-16T18:38:46.713Z,7.00
2022-10-16T18:41:13.465Z,7.40
2022-10-16T18:43:40.423Z,7.37
2022-10-16T18:46:12.249Z,5.80
2022-10-16T18:48:40.393Z,10.23
2022-10-16T18:51:16.174Z,9.07
2022-10-16T18:53:44.782Z,7.90
2022-10-16T18:56:13.058Z,7.90
2022-10-16T18:58:41.543Z,9.27
2022-10-16T19:01:11.210Z,7.90
2022-10-16T19:03:43.184Z,7.00
2022-10-16T19:06:13.894Z,17.90
2022-10-16T19:08:41.357Z,10.50
2022-10-16T19:11:12.699Z,10.03
2022-10-16T19:13:39.455Z,12.03
2022-10-16T19:16:27.037Z,10.60
2022-10-16T19:18:55.983Z,10.87
2022-10-16T19:21:24.544Z,12.47
2022-10-16T19:23:53.100Z,11.03
2022-10-16T19:26:21.373Z,11.30
2022-10-16T19:28:48.461Z,10.10
2022-10-16T19:31:18.535Z,12.20
2022-10-16T19:33:45.841Z,10.17
2022-10-16T19:36:17.263Z,16.80
2022-10-16T19:38:45.472Z,16.37
2022-10-16T19:41:13.579Z,15.27
2022-10-16T19:43:41.035Z,9.07
2022-10-16T19:46:14.092Z,16.07
2022-10-16T19:48:41.565Z,11.60
2022-10-16T19:51:11.786Z,16.47
2022-10-16T19:53:38.406Z,13.30
2022-10-16T19:56:32.168Z,13.60
2022-10-16T19:59:00.136Z,14.63
2022-10-16T20:01:28.941Z,12.20
2022-10-16T20:03:56.165Z,14.30
2022-10-16T20:06:23.286Z,12.37
2022-10-16T20:08:52.051Z,15.33
2022-10-16T20:11:22.091Z,20.47
2022-10-16T20:13:49.354Z,11.87
2022-10-16T20:16:19.091Z,19.53
2022-10-16T20:18:48.441Z,24.67
2022-10-16T20:21:20.892Z,14.73
2022-10-16T20:23:48.998Z,13.70
2022-10-16T20:26:16.558Z,12.67
2022-10-16T20:28:44.003Z,11.27
2022-10-16T20:31:17.538Z,11.53
2022-10-16T20:33:45.022Z,7.20
2022-10-16T20:36:16.139Z,9.43
2022-10-16T20:38:43.430Z,7.80
2022-10-16T20:41:11.109Z,7.43
2022-10-16T20:46:17.020Z,6.97
2022-10-16T20:48:44.220Z,16.83
2022-10-16T20:51:26.136Z,7.10
2022-10-16T20:53:55.780Z,7.30
2022-10-16T20:56:22.969Z,6.63
2022-10-16T20:58:49.831Z,8.73
2022-10-16T21:01:19.048Z,8.23
2022-10-16T21:03:51.694Z,6.47
2022-10-16T21:06:18.367Z,9.20
2022-10-16T21:08:45.296Z,11.13
2022-10-16T21:11:19.122Z,12.07
2022-10-16T21:13:45.995Z,11.10
2022-10-16T21:16:14.171Z,9.83
2022-10-16T21:18:44.615Z,8.97
2022-10-16T21:21:20.728Z,8.77
2022-10-16T21:23:49.277Z,11.00
2022-10-16T21:26:18.306Z,10.53
2022-10-16T21:28:45.247Z,7.57
2022-10-16T21:31:24.464Z,8.83
2022-10-16T21:33:52.798Z,8.57
2022-10-16T21:36:22.609Z,8.97
2022-10-16T21:38:49.714Z,9.00
2022-10-16T21:41:25.147Z,11.80
2022-10-16T21:43:52.387Z,10.43
2022-10-16T21:46:21.475Z,9.17
2022-10-16T21:48:48.548Z,7.07
2022-10-16T21:51:15.658Z,7.50
2022-10-16T21:53:42.253Z,14.63
2022-10-16T21:56:14.656Z,9.83
2022-10-16T21:58:41.817Z,5.80
2022-10-16T22:01:09.949Z,10.07
2022-10-16T22:03:36.705Z,7.87
2022-10-16T22:06:08.447Z,7.20
2022-10-16T22:08:36.550Z,9.03
2022-10-16T22:11:11.678Z,7.83
2022-10-16T22:13:39.043Z,10.10
2022-10-16T22:16:06.189Z,9.33
2022-10-16T22:18:33.520Z,6.50
2022-10-16T22:21:00.212Z,7.07
2022-10-16T22:23:27.125Z,9.60
2022-10-16T22:26:08.888Z,11.40
2022-10-16T22:28:35.874Z,5.17
2022-10-16T22:31:07.780Z,8.63
2022-10-16T22:36:08.363Z,7.40
2022-10-16T22:38:36.413Z,5.70
2022-10-16T22:41:11.691Z,5.60
2022-10-16T22:43:41.407Z,6.73
2022-10-16T22:46:09.913Z,6.13
2022-10-16T22:48:37.425Z,5.57
2022-10-16T22:51:05.800Z,6.90
2022-10-16T22:53:33.346Z,5.00
2022-10-16T22:56:00.119Z,6.20
2022-10-16T22:58:27.093Z,4.67
2022-10-16T23:00:53.945Z,6.73
2022-10-16T23:03:20.751Z,4.87
2022-10-16T23:05:47.397Z,7.03
2022-10-16T23:08:14.277Z,6.70
2022-10-16T23:10:43.769Z,12.73
2022-10-16T23:13:11.120Z,5.47
2022-10-16T23:15:42.968Z,5.57
2022-10-16T23:18:10.385Z,8.40
2022-10-16T23:20:40.616Z,5.27
2022-10-16T23:23:07.917Z,8.03
2022-10-16T23:25:34.882Z,9.13
2022-10-16T23:28:02.895Z,6.50
2022-10-16T23:30:29.658Z,9.43
2022-10-16T23:32:56.310Z,6.13
2022-10-16T23:35:22.928Z,5.57
2022-10-16T23:37:49.667Z,5.63
2022-10-16T23:40:16.331Z,5.67
2022-10-16T23:42:42.995Z,7.17
2022-10-16T23:45:09.581Z,5.67
2022-10-16T23:47:36.153Z,6.00
2022-10-16T23:50:02.802Z,7.30
2022-10-16T23:52:29.506Z,4.33
2022-10-16T23:54:56.053Z,6.50
2022-10-16T23:57:22.634Z,7.20
2022-10-16T23:59:49.254Z,7.87
